Time;durP1;ratioP1;P1;durP2;ratioP2;P2;SDS_P1;SDS_P2;PMS_P1;PMS_P2;Temp;Humidity;BMP_temperature;BMP_pressure;BME280_temperature;BME280_humidity;BME280_pressure;Samples;Min_cycle;Max_cycle;Signal;HPM_P1;HPM_P2
2022/04/16 00:01:42;;;;;;;4.88;3.08;;;13.60;57.90;;;;;;4917656;28;20921;-75
2022/04/16 00:04:09;;;;;;;4.70;3.50;;;13.60;58.00;;;;;;4916268;29;20051;-76
2022/04/16 00:06:36;;;;;;;3.83;3.42;;;13.50;57.90;;;;;;4917748;29;20462;-76
2022/04/16 00:09:03;;;;;;;4.03;3.38;;;13.50;58.00;;;;;;4920710;29;20027;-75
2022/04/16 00:11:29;;;;;;;4.93;3.60;;;13.50;58.00;;;;;;4927899;29;20027;-76
2022/04/16 00:13:55;;;;;;;4.53;3.60;;;13.50;58.10;;;;;;4923301;29;20364;-75
2022/04/16 00:16:21;;;;;;;4.22;3.13;;;13.40;58.60;;;;;;4917118;28;20464;-75
2022/04/16 00:18:48;;;;;;;3.80;3.40;;;13.40;58.10;;;;;;4928182;29;20058;-75
2022/04/16 00:21:14;;;;;;;3.75;3.30;;;13.40;58.10;;;;;;4922392;29;20120;-76
2022/04/16 00:23:43;;;;;;;4.68;3.22;;;13.30;58.00;;;;;;4927088;29;20065;-75
2022/04/16 00:26:12;;;;;;;3.53;3.22;;;13.30;58.10;;;;;;4927464;29;20078;-75
2022/04/16 00:28:39;;;;;;;3.70;3.28;;;13.30;58.20;;;;;;4924235;29;20460;-75
2022/04/16 00:31:05;;;;;;;3.92;2.90;;;13.30;58.20;;;;;;4922055;29;20024;-74
2022/04/16 00:33:33;;;;;;;5.35;3.15;;;13.20;58.10;;;;;;4928042;29;20139;-76
2022/04/16 00:36:01;;;;;;;5.50;4.13;;;13.20;58.10;;;;;;4916045;29;20067;-76
2022/04/16 00:38:27;;;;;;;4.50;3.65;;;13.20;58.10;;;;;;4914765;29;20028;-76
2022/04/16 00:40:52;;;;;;;4.25;3.45;;;13.10;58.00;;;;;;4922244;29;20483;-76
2022/04/16 00:43:22;;;;;;;6.07;4.28;;;13.10;58.00;;;;;;4926174;29;20028;-74
2022/04/16 00:45:49;;;;;;;4.07;3.20;;;13.10;58.10;;;;;;4927431;29;20050;-75
2022/04/16 00:48:15;;;;;;;4.05;3.30;;;13.10;58.20;;;;;;4912069;29;20031;-75
2022/04/16 00:50:41;;;;;;;3.97;3.33;;;13.00;58.00;;;;;;4926473;29;20031;-75
2022/04/16 00:53:08;;;;;;;4.97;3.70;;;13.00;58.00;;;;;;4920495;29;20062;-75
2022/04/16 00:55:38;;;;;;;4.00;3.60;;;12.90;57.90;;;;;;4926510;29;20035;-76
2022/04/16 00:58:04;;;;;;;3.83;3.53;;;12.90;58.00;;;;;;4922475;29;20431;-75
2022/04/16 01:00:30;;;;;;;4.72;3.83;;;12.90;58.00;;;;;;4915469;29;20044;-76
2022/04/16 01:02:57;;;;;;;4.75;4.32;;;12.90;58.10;;;;;;4917605;29;20126;-74
2022/04/16 01:05:23;;;;;;;4.75;4.10;;;12.90;58.20;;;;;;4930821;29;20035;-75
2022/04/16 01:07:56;;;;;;;5.57;4.97;;;12.80;58.00;;;;;;4928289;29;20027;-76
2022/04/16 01:10:26;;;;;;;4.53;3.78;;;12.80;58.70;;;;;;4918995;29;20035;-75
2022/04/16 01:12:53;;;;;;;5.38;4.28;;;12.80;58.10;;;;;;4930425;29;20040;-76
2022/04/16 01:15:20;;;;;;;4.50;4.10;;;12.70;58.00;;;;;;4914889;29;20036;-75
2022/04/16 01:17:50;;;;;;;5.18;4.22;;;12.70;58.00;;;;;;4927374;29;20031;-75
2022/04/16 01:20:17;;;;;;;5.97;4.45;;;12.70;58.10;;;;;;4919840;29;20067;-75
2022/04/16 01:22:45;;;;;;;5.10;4.60;;;12.60;58.00;;;;;;4933079;29;20704;-76
2022/04/16 01:25:11;;;;;;;5.75;4.78;;;12.60;58.10;;;;;;4919981;29;20040;-76
2022/04/16 01:27:43;;;;;;;7.25;4.78;;;12.60;58.10;;;;;;4925200;28;20043;-74
2022/04/16 01:30:19;;;;;;;5.47;4.67;;;12.50;57.90;;;;;;4926410;29;20043;-74
2022/04/16 01:32:48;;;;;;;5.85;5.13;;;12.50;58.10;;;;;;4927346;28;20394;-75
2022/04/16 01:35:16;;;;;;;5.00;4.50;;;12.50;58.10;;;;;;4931172;29;20040;-75
2022/04/16 01:37:42;;;;;;;6.88;5.32;;;12.40;57.90;;;;;;4930839;29;20376;-75
2022/04/16 01:40:10;;;;;;;6.45;5.20;;;12.40;58.00;;;;;;4930125;29;20039;-74
2022/04/16 01:42:37;;;;;;;5.80;4.70;;;12.40;58.10;;;;;;4929776;29;20403;-75
2022/04/16 01:45:06;;;;;;;4.93;4.43;;;12.40;58.20;;;;;;4918834;29;20038;-75
2022/04/16 01:47:36;;;;;;;5.63;4.60;;;12.30;58.10;;;;;;4959628;23;20055;-83
2022/04/16 01:50:07;;;;;;;4.82;4.32;;;12.30;58.10;;;;;;4952896;28;20126;-82
2022/04/16 01:52:35;;;;;;;5.40;4.82;;;12.20;58.00;;;;;;4952283;28;20031;-82
2022/04/16 01:55:01;;;;;;;5.93;4.30;;;12.20;58.10;;;;;;4947946;28;20071;-82
2022/04/16 01:57:27;;;;;;;4.65;4.22;;;12.20;58.20;;;;;;4952617;28;20067;-83
2022/04/16 01:59:53;;;;;;;4.93;4.18;;;12.20;58.20;;;;;;4952942;28;20027;-83
2022/04/16 02:02:19;;;;;;;7.50;4.70;;;12.20;58.30;;;;;;4938194;28;20038;-83
2022/04/16 02:04:46;;;;;;;6.43;4.55;;;12.10;58.10;;;;;;4968123;28;20031;-82
2022/04/16 02:07:13;;;;;;;4.95;4.50;;;12.10;58.20;;;;;;4955404;28;20031;-82
2022/04/16 02:09:40;;;;;;;4.85;4.35;;;12.10;58.20;;;;;;4947455;28;20098;-82
2022/04/16 02:12:07;;;;;;;5.22;4.30;;;12.10;58.30;;;;;;4949187;28;20122;-82
2022/04/16 02:14:34;;;;;;;4.03;3.60;;;12.10;58.40;;;;;;4967457;28;20125;-82
2022/04/16 02:17:00;;;;;;;5.10;4.05;;;12.00;58.20;;;;;;4965892;28;20110;-83
2022/04/16 02:19:27;;;;;;;4.63;3.90;;;12.00;58.30;;;;;;4950396;28;20368;-84
2022/04/16 02:21:53;;;;;;;6.18;3.88;;;12.00;58.30;;;;;;4953281;28;20071;-83
2022/04/16 02:24:19;;;;;;;5.22;3.67;;;11.90;58.20;;;;;;4961103;28;20110;-83
2022/04/16 02:26:45;;;;;;;3.88;3.08;;;12.00;58.40;;;;;;4937953;28;20162;-84
2022/04/16 02:29:12;;;;;;;4.00;3.60;;;11.90;58.30;;;;;;4952395;28;20039;-84
2022/04/16 02:31:38;;;;;;;5.07;3.33;;;11.90;58.30;;;;;;4950936;28;20035;-84
2022/04/16 02:34:05;;;;;;;4.53;3.85;;;11.80;58.20;;;;;;4951520;28;20113;-84
2022/04/16 02:36:32;;;;;;;3.88;3.53;;;11.80;58.80;;;;;;4951856;28;20035;-83
2022/04/16 02:38:58;;;;;;;6.10;3.90;;;11.80;58.30;;;;;;4952556;28;20039;-83
2022/04/16 02:41:25;;;;;;;3.58;3.28;;;11.70;58.20;;;;;;4931745;29;20127;-83
2022/04/16 02:43:54;;;;;;;4.13;3.53;;;11.70;58.30;;;;;;4913185;29;20036;-83
2022/04/16 02:49:09;;;;;;;3.60;2.92;;;11.60;58.30;;;;;;4933222;29;20036;-83
2022/04/16 02:51:35;;;;;;;4.22;3.47;;;11.60;58.30;;;;;;4930270;29;20036;-82
2022/04/16 02:54:01;;;;;;;4.30;3.72;;;11.60;58.90;;;;;;4932546;29;20038;-82
2022/04/16 02:56:27;;;;;;;3.30;3.00;;;11.60;58.40;;;;;;4927797;29;20123;-83
2022/04/16 02:58:53;;;;;;;3.45;3.13;;;11.50;58.30;;;;;;4933187;29;20115;-82
2022/04/16 03:01:19;;;;;;;4.15;3.25;;;11.50;58.30;;;;;;4929550;29;20259;-81
2022/04/16 03:03:45;;;;;;;4.90;3.20;;;11.50;58.40;;;;;;4932080;29;20118;-82
2022/04/16 03:06:11;;;;;;;3.40;3.10;;;11.50;58.40;;;;;;4927579;29;20053;-81
2022/04/16 03:08:37;;;;;;;4.07;2.65;;;11.50;58.50;;;;;;4931666;29;20115;-81
2022/04/16 03:11:06;;;;;;;3.50;3.13;;;11.50;58.50;;;;;;4932287;29;20042;-82
2022/04/16 03:13:35;;;;;;;3.25;2.70;;;11.50;59.10;;;;;;4930934;29;20031;-82
2022/04/16 03:18:46;;;;;;;4.18;2.65;;;11.40;58.40;;;;;;4934184;29;20475;-81
2022/04/16 03:21:12;;;;;;;4.32;3.08;;;11.40;58.40;;;;;;4925442;29;20048;-81
2022/04/16 03:23:38;;;;;;;3.55;2.88;;;11.40;59.00;;;;;;4938147;29;20435;-82
2022/04/16 03:26:04;;;;;;;3.22;2.88;;;11.40;58.50;;;;;;4929219;29;20377;-83
2022/04/16 03:28:31;;;;;;;3.17;2.58;;;11.40;58.50;;;;;;4928400;29;20039;-83
2022/04/16 03:30:58;;;;;;;5.90;2.97;;;11.30;58.40;;;;;;4930520;29;20036;-83
2022/04/16 03:33:24;;;;;;;4.15;3.20;;;11.30;58.50;;;;;;4930914;29;20031;-85
2022/04/16 03:35:51;;;;;;;3.78;3.35;;;11.30;58.50;;;;;;4932196;29;20035;-85
2022/04/16 03:38:19;;;;;;;4.32;3.45;;;11.30;58.60;;;;;;4929981;29;20032;-84
2022/04/16 03:40:48;;;;;;;6.43;3.53;;;11.30;58.70;;;;;;4907654;29;20510;-83
2022/04/16 03:43:14;;;;;;;5.88;4.18;;;11.30;58.80;;;;;;4931121;29;20032;-82
2022/04/16 03:45:39;;;;;;;4.43;3.97;;;11.30;58.90;;;;;;4931375;29;20273;-83
2022/04/16 03:48:07;;;;;;;4.28;3.88;;;11.20;58.70;;;;;;4930192;29;20044;-83
2022/04/16 03:50:34;;;;;;;6.07;3.80;;;11.20;58.70;;;;;;4910154;29;20500;-83
2022/04/16 03:53:01;;;;;;;6.22;4.45;;;11.30;58.90;;;;;;4928106;29;20035;-83
2022/04/16 04:01:03;;;;;;;5.28;4.30;;;11.30;59.00;;;;;;4928821;29;20109;-81
2022/04/16 04:03:30;;;;;;;5.20;4.40;;;11.30;59.00;;;;;;4930114;29;20122;-82
2022/04/16 04:05:58;;;;;;;5.30;4.28;;;11.30;59.00;;;;;;4930833;29;20059;-84
2022/04/16 04:08:25;;;;;;;5.45;4.10;;;11.30;59.10;;;;;;4921813;29;20028;-83
2022/04/16 04:10:51;;;;;;;6.38;5.13;;;11.30;59.10;;;;;;4925134;29;20120;-82
2022/04/16 04:13:18;;;;;;;4.53;4.10;;;11.30;59.10;;;;;;4925030;29;20465;-84
2022/04/16 04:15:44;;;;;;;6.15;4.55;;;11.30;59.20;;;;;;4929725;29;20043;-85
2022/04/16 04:18:10;;;;;;;7.78;5.22;;;11.30;59.20;;;;;;4928751;29;20554;-84
2022/04/16 04:20:36;;;;;;;6.28;4.93;;;11.30;59.30;;;;;;4927187;29;20039;-83
2022/04/16 04:23:03;;;;;;;7.03;5.00;;;11.30;59.40;;;;;;4926915;29;20028;-84
2022/04/16 04:25:29;;;;;;;7.20;5.80;;;11.20;59.20;;;;;;4930724;29;20047;-84
2022/04/16 04:27:56;;;;;;;6.68;5.28;;;11.20;59.30;;;;;;4930553;29;20035;-86
2022/04/16 04:30:22;;;;;;;6.85;4.88;;;11.20;59.30;;;;;;4925916;29;20566;-87
2022/04/16 04:32:48;;;;;;;7.03;6.25;;;11.30;59.60;;;;;;4911713;29;20039;-85
2022/04/16 04:35:14;;;;;;;8.68;5.82;;;11.20;59.40;;;;;;4929714;29;20038;-84
2022/04/16 04:37:40;;;;;;;7.35;5.88;;;11.20;59.50;;;;;;4931169;29;20032;-84
2022/04/16 04:40:07;;;;;;;7.55;5.60;;;11.20;59.50;;;;;;4913851;29;20031;-85
2022/04/16 04:42:34;;;;;;;7.05;6.00;;;11.20;59.60;;;;;;4937347;29;20035;-84
2022/04/16 04:45:11;;;;;;;7.22;5.95;;;11.20;59.70;;;;;;4937721;29;20118;-89
2022/04/16 04:47:37;;;;;;;9.07;6.25;;;11.20;59.90;;;;;;4930924;29;20058;-91
2022/04/16 04:50:04;;;;;;;8.70;6.28;;;11.20;59.80;;;;;;4941336;29;20024;-89
2022/04/16 04:52:30;;;;;;;7.28;5.97;;;11.20;59.90;;;;;;4943363;28;20072;-90
2022/04/16 04:54:57;;;;;;;7.07;5.93;;;11.20;60.00;;;;;;4930718;29;20037;-88
2022/04/16 04:57:23;;;;;;;7.28;5.57;;;11.20;60.00;;;;;;4943845;28;20032;-93
2022/04/16 04:59:50;;;;;;;9.20;6.80;;;11.20;60.10;;;;;;4940717;29;20032;-86
2022/04/16 05:02:16;;;;;;;7.95;6.57;;;11.10;60.00;;;;;;4936834;28;20122;-92
2022/04/16 05:04:43;;;;;;;7.55;6.80;;;11.10;60.00;;;;;;4937604;29;20447;-80
2022/04/16 05:07:09;;;;;;;8.45;7.57;;;11.10;60.60;;;;;;4934378;29;20027;-84
2022/04/16 05:09:36;;;;;;;6.97;6.25;;;11.10;60.10;;;;;;4937077;29;20032;-87
2022/04/16 05:12:03;;;;;;;10.70;7.53;;;11.10;60.20;;;;;;4937434;28;20495;-90
2022/04/16 05:14:29;;;;;;;8.68;7.22;;;11.10;60.20;;;;;;4928243;29;20503;-86
2022/04/16 05:16:55;;;;;;;10.35;8.70;;;11.20;60.40;;;;;;4933635;29;20035;-84
2022/04/16 05:19:21;;;;;;;8.43;6.90;;;11.20;60.40;;;;;;4935961;29;20086;-79
2022/04/16 05:21:47;;;;;;;8.55;7.45;;;11.20;60.50;;;;;;4943196;28;20047;-77
2022/04/16 05:24:16;;;;;;;9.30;7.40;;;11.20;60.70;;;;;;4932701;29;20090;-80
2022/04/16 05:26:42;;;;;;;9.85;7.30;;;11.30;60.90;;;;;;4933539;29;20031;-78
2022/04/16 05:29:08;;;;;;;13.82;9.80;;;11.30;61.00;;;;;;4937587;28;20093;-79
2022/04/16 05:31:35;;;;;;;12.77;10.35;;;11.40;61.30;;;;;;4928165;29;20039;-83
2022/04/16 05:34:19;;;;;;;13.95;10.85;;;11.40;61.60;;;;;;4917227;29;20400;-79
2022/04/16 05:36:49;;;;;;;14.93;11.40;;;11.50;62.00;;;;;;4937829;29;20317;-80
2022/04/16 05:39:16;;;;;;;14.68;11.85;;;11.60;62.10;;;;;;4934246;29;20481;-80
2022/04/16 05:41:42;;;;;;;13.93;11.70;;;11.70;62.30;;;;;;4932119;29;20047;-78
2022/04/16 05:44:08;;;;;;;14.07;12.27;;;11.70;62.20;;;;;;4927440;29;20199;-78
2022/04/16 05:46:34;;;;;;;17.58;11.27;;;11.70;62.20;;;;;;4924905;29;20574;-81
2022/04/16 05:49:00;;;;;;;14.82;12.13;;;11.70;62.30;;;;;;4915939;29;20032;-80
2022/04/16 05:51:26;;;;;;;14.48;11.02;;;11.70;62.30;;;;;;4927965;29;20813;-80
2022/04/16 05:53:53;;;;;;;16.27;12.00;;;11.70;62.30;;;;;;4911933;29;20035;-80
2022/04/16 05:56:20;;;;;;;14.45;12.13;;;11.60;62.20;;;;;;4927905;29;20027;-80
2022/04/16 05:58:46;;;;;;;14.05;12.40;;;11.60;62.20;;;;;;4923745;29;20039;-78
2022/04/16 06:01:13;;;;;;;16.80;11.63;;;11.60;62.30;;;;;;4933645;29;20055;-77
2022/04/16 06:03:39;;;;;;;13.57;12.02;;;11.60;62.40;;;;;;4928232;28;20510;-78
2022/04/16 06:06:06;;;;;;;12.93;11.25;;;11.70;62.60;;;;;;4930786;29;20024;-78
2022/04/16 06:08:32;;;;;;;13.38;11.90;;;11.70;62.60;;;;;;4928020;29;20632;-80
2022/04/16 06:10:58;;;;;;;15.15;12.73;;;11.80;62.70;;;;;;4936082;29;20482;-78
2022/04/16 06:13:25;;;;;;;18.95;15.18;;;11.80;62.70;;;;;;4937939;28;20595;-77
2022/04/16 06:15:51;;;;;;;15.13;12.93;;;11.90;62.80;;;;;;4932801;29;20539;-77
2022/04/16 06:18:18;;;;;;;14.98;13.48;;;11.90;62.80;;;;;;4925983;29;20063;-77
2022/04/16 06:20:44;;;;;;;15.23;12.60;;;11.90;62.70;;;;;;4928365;29;20102;-77
2022/04/16 06:23:10;;;;;;;16.90;12.10;;;12.00;62.90;;;;;;4930059;29;20024;-76
2022/04/16 06:25:36;;;;;;;14.98;13.18;;;12.00;62.90;;;;;;4928426;29;20888;-76
2022/04/16 06:28:02;;;;;;;13.75;12.27;;;12.10;62.90;;;;;;4932418;29;20098;-76
2022/04/16 06:30:28;;;;;;;17.35;13.80;;;12.20;63.10;;;;;;4923517;29;20039;-77
2022/04/16 06:32:55;;;;;;;16.60;14.50;;;12.20;63.00;;;;;;4925983;29;20119;-77
2022/04/16 06:35:21;;;;;;;16.48;14.77;;;12.30;63.10;;;;;;4925294;29;20194;-77
2022/04/16 06:37:47;;;;;;;16.65;14.48;;;12.30;63.10;;;;;;4933720;29;20035;-77
2022/04/16 06:40:13;;;;;;;19.83;16.65;;;12.40;63.30;;;;;;4931403;29;20043;-79
2022/04/16 06:42:39;;;;;;;20.60;17.55;;;12.40;63.30;;;;;;4951073;29;20317;-79
2022/04/16 06:45:06;;;;;;;19.15;17.15;;;12.50;63.40;;;;;;4962727;29;20039;-78
2022/04/16 06:47:32;;;;;;;19.50;16.00;;;12.60;63.50;;;;;;4934791;29;20064;-78
2022/04/16 06:49:58;;;;;;;18.98;16.92;;;12.60;63.50;;;;;;4936918;29;20036;-77
2022/04/16 06:52:24;;;;;;;18.98;16.95;;;12.70;63.60;;;;;;4943692;29;20141;-79
2022/04/16 06:54:50;;;;;;;19.42;16.38;;;12.70;63.60;;;;;;4953829;28;20016;-79
2022/04/16 06:57:16;;;;;;;23.88;17.90;;;12.80;63.90;;;;;;4959026;28;20020;-78
2022/04/16 06:59:42;;;;;;;19.42;16.77;;;12.90;64.10;;;;;;4935265;29;20075;-79
2022/04/16 07:02:10;;;;;;;18.85;16.08;;;13.00;64.20;;;;;;4944561;29;20028;-79
2022/04/16 07:04:37;;;;;;;18.33;15.60;;;13.10;64.20;;;;;;4925677;29;20559;-79
2022/04/16 07:07:03;;;;;;;19.08;14.25;;;13.30;64.30;;;;;;4947098;28;20118;-79
2022/04/16 07:09:38;;;;;;;17.48;15.50;;;13.40;64.30;;;;;;4929289;29;20147;-78
2022/04/16 07:12:08;;;;;;;17.67;15.73;;;13.50;64.40;;;;;;4920331;29;20114;-79
2022/04/16 07:14:34;;;;;;;16.75;15.00;;;13.60;64.30;;;;;;4931120;29;20034;-78
2022/04/16 07:17:01;;;;;;;16.95;15.25;;;13.70;64.20;;;;;;4928223;29;20074;-79
2022/04/16 07:19:31;;;;;;;17.95;14.73;;;13.80;64.20;;;;;;4929087;29;20106;-79
2022/04/16 07:21:57;;;;;;;15.82;14.23;;;13.90;64.30;;;;;;4918719;29;20526;-77
2022/04/16 07:24:25;;;;;;;16.95;14.90;;;14.00;64.20;;;;;;4936249;29;20032;-77
2022/04/16 07:26:54;;;;;;;17.00;14.88;;;14.10;64.10;;;;;;4928562;29;20103;-77
2022/04/16 07:29:21;;;;;;;19.02;16.27;;;14.20;64.20;;;;;;4928035;29;20057;-77
2022/04/16 07:31:47;;;;;;;16.23;14.48;;;14.30;64.10;;;;;;4928866;29;20099;-78
2022/04/16 07:34:14;;;;;;;16.88;14.10;;;14.40;64.10;;;;;;4930051;29;20051;-77
2022/04/16 07:36:41;;;;;;;15.93;14.32;;;14.50;64.10;;;;;;4928974;29;20095;-77
2022/04/16 07:39:07;;;;;;;16.20;13.70;;;14.60;64.10;;;;;;4930070;29;20036;-78
2022/04/16 07:41:36;;;;;;;18.20;15.48;;;14.80;64.20;;;;;;4932340;29;20044;-78
2022/04/16 07:44:05;;;;;;;17.55;13.98;;;14.90;64.10;;;;;;4930620;29;20032;-78
2022/04/16 07:46:38;;;;;;;16.60;14.80;;;15.00;64.00;;;;;;4934558;29;20503;-74
2022/04/16 07:49:04;;;;;;;17.23;14.68;;;15.20;64.00;;;;;;4937618;28;20322;-78
2022/04/16 07:51:30;;;;;;;16.83;14.85;;;15.40;63.90;;;;;;4935393;29;20315;-78
2022/04/16 07:53:57;;;;;;;15.85;14.15;;;15.60;63.70;;;;;;4929268;29;20031;-78
2022/04/16 07:56:23;;;;;;;16.55;14.73;;;15.90;63.80;;;;;;4928487;29;20035;-78
2022/04/16 07:58:50;;;;;;;16.30;13.70;;;16.10;63.60;;;;;;4927832;29;20031;-78
2022/04/16 08:01:17;;;;;;;18.85;15.10;;;16.20;63.30;;;;;;4927631;29;20110;-78
2022/04/16 08:03:43;;;;;;;16.52;14.70;;;16.40;63.20;;;;;;4909423;29;20028;-78
2022/04/16 08:06:09;;;;;;;18.80;16.65;;;16.60;63.10;;;;;;4919290;29;20040;-77
2022/04/16 08:08:35;;;;;;;16.10;13.05;;;16.70;62.90;;;;;;4928407;29;20435;-78
2022/04/16 08:11:03;;;;;;;16.58;13.77;;;16.80;62.80;;;;;;4938553;29;20063;-79
2022/04/16 08:13:30;;;;;;;14.75;13.25;;;16.80;62.60;;;;;;4943970;28;20069;-77
2022/04/16 08:15:55;;;;;;;15.30;13.70;;;16.90;62.70;;;;;;4927195;29;20031;-77
2022/04/16 08:18:21;;;;;;;16.65;14.00;;;17.00;62.80;;;;;;4926096;29;20047;-77
2022/04/16 08:20:47;;;;;;;14.95;13.40;;;17.00;62.70;;;;;;4927979;29;20415;-77
2022/04/16 08:23:14;;;;;;;16.52;14.82;;;17.10;62.70;;;;;;4937907;29;20352;-76
2022/04/16 08:28:06;;;;;;;15.68;13.13;;;17.30;62.60;;;;;;4931640;28;20178;-77
2022/04/16 08:30:32;;;;;;;13.57;12.20;;;17.30;63.00;;;;;;4926812;29;20036;-78
2022/04/16 08:32:59;;;;;;;16.05;14.40;;;17.40;62.40;;;;;;4930911;29;20118;-77
2022/04/16 08:35:25;;;;;;;13.60;12.20;;;17.40;62.30;;;;;;4928879;29;20100;-77
2022/04/16 08:37:51;;;;;;;14.30;11.65;;;17.50;62.30;;;;;;4949579;29;20095;-78
2022/04/16 08:40:18;;;;;;;14.05;12.68;;;17.60;62.40;;;;;;4936135;29;20055;-78
2022/04/16 08:42:47;;;;;;;14.40;12.93;;;17.70;62.30;;;;;;4945625;29;20408;-77
2022/04/16 08:45:13;;;;;;;13.80;12.40;;;17.80;62.20;;;;;;4947194;29;20024;-76
2022/04/16 08:47:40;;;;;;;16.40;12.40;;;17.90;62.00;;;;;;4944747;29;20051;-78
2022/04/16 08:50:08;;;;;;;13.45;12.05;;;18.10;62.00;;;;;;4924308;29;20477;-78
2022/04/16 08:52:37;;;;;;;12.88;11.57;;;18.30;62.00;;;;;;4923805;29;20047;-77
2022/04/16 08:55:05;;;;;;;13.00;11.70;;;18.50;62.00;;;;;;4920299;29;20510;-77
2022/04/16 08:57:32;;;;;;;12.80;11.50;;;18.60;61.70;;;;;;4926453;29;20489;-77
2022/04/16 08:59:58;;;;;;;14.27;12.77;;;18.80;61.70;;;;;;4910619;29;20040;-78
2022/04/16 09:02:27;;;;;;;13.77;12.15;;;18.90;61.40;;;;;;4914065;29;20488;-84
2022/04/16 09:05:10;;;;;;;12.23;10.70;;;19.10;61.40;;;;;;4918157;29;20750;-77
2022/04/16 09:07:52;;;;;;;13.57;11.35;;;19.30;61.50;;;;;;4926682;29;20083;-77
2022/04/16 09:10:19;;;;;;;13.65;10.15;;;19.50;61.50;;;;;;4924151;29;20043;-76
2022/04/16 09:12:50;;;;;;;10.77;9.00;;;19.70;61.50;;;;;;4932595;28;20391;-79
2022/04/16 09:15:16;;;;;;;11.20;10.07;;;19.80;61.20;;;;;;4930614;29;20040;-79
2022/04/16 09:17:43;;;;;;;11.10;10.00;;;20.00;61.30;;;;;;4920420;29;20114;-77
2022/04/16 09:20:13;;;;;;;11.48;10.18;;;20.20;61.20;;;;;;4909695;29;20272;-79
2022/04/16 09:22:41;;;;;;;10.70;9.70;;;20.30;61.00;;;;;;4915610;29;20032;-78
2022/04/16 09:25:19;;;;;;;12.07;10.88;;;20.50;61.00;;;;;;4922949;29;20542;-76
2022/04/16 09:27:50;;;;;;;13.27;11.77;;;20.60;60.70;;;;;;4913416;29;20066;-79
2022/04/16 09:30:31;;;;;;;11.95;10.73;;;20.90;60.80;;;;;;4930924;29;20035;-78
2022/04/16 09:32:59;;;;;;;12.32;11.20;;;21.00;60.50;;;;;;4939322;29;20039;-78
2022/04/16 09:35:33;;;;;;;12.60;10.18;;;21.20;60.60;;;;;;4931723;29;20067;-77
2022/04/16 09:38:00;;;;;;;14.60;10.80;;;21.30;60.30;;;;;;4922205;29;20043;-76
2022/04/16 09:40:28;;;;;;;13.35;11.38;;;21.50;60.30;;;;;;4917786;29;20043;-78
2022/04/16 09:42:56;;;;;;;13.00;11.60;;;21.70;60.30;;;;;;4927588;29;20123;-77
2022/04/16 09:45:22;;;;;;;12.25;11.00;;;21.80;60.00;;;;;;4913458;29;20059;-79
2022/04/16 09:47:49;;;;;;;15.07;13.02;;;22.00;60.10;;;;;;4917983;29;20082;-77
2022/04/16 09:50:21;;;;;;;16.13;14.30;;;22.10;60.10;;;;;;4922227;29;20040;-77
2022/04/16 09:52:52;;;;;;;14.27;12.88;;;22.20;59.80;;;;;;4927275;29;20035;-78
2022/04/16 09:55:21;;;;;;;15.45;13.02;;;22.30;59.60;;;;;;4928961;29;20511;-77
2022/04/16 09:58:09;;;;;;;18.05;14.80;;;22.40;59.60;;;;;;4914738;29;20216;-77
2022/04/16 10:00:37;;;;;;;15.02;13.52;;;22.50;59.50;;;;;;4929434;29;20102;-77
2022/04/16 10:03:07;;;;;;;16.17;14.00;;;22.60;59.50;;;;;;4926212;29;20088;-77
2022/04/16 10:05:33;;;;;;;15.93;14.27;;;22.70;59.40;;;;;;4924849;29;20141;-76
2022/04/16 10:08:00;;;;;;;16.98;15.27;;;22.70;59.30;;;;;;4930656;29;20247;-76
2022/04/16 10:10:41;;;;;;;17.58;15.70;;;22.70;59.10;;;;;;4929819;28;20042;-76
2022/04/16 10:13:10;;;;;;;15.88;14.27;;;22.70;59.00;;;;;;4919621;29;20035;-75
2022/04/16 10:15:55;;;;;;;16.00;14.10;;;22.80;59.10;;;;;;4928531;29;20094;-80
2022/04/16 10:18:21;;;;;;;14.55;13.07;;;22.80;58.80;;;;;;4921191;29;20039;-76
2022/04/16 10:20:57;;;;;;;18.20;15.82;;;22.90;59.10;;;;;;4924508;29;20076;-76
2022/04/16 10:23:31;;;;;;;15.95;14.35;;;22.90;58.90;;;;;;4926083;29;20175;-75
2022/04/16 10:26:09;;;;;;;17.48;15.77;;;23.00;59.00;;;;;;4921145;29;20050;-76
2022/04/16 10:28:55;;;;;;;19.73;16.63;;;23.00;58.80;;;;;;4929451;29;20488;-76
2022/04/16 10:31:29;;;;;;;19.08;17.05;;;23.00;58.50;;;;;;4933291;29;20483;-78
2022/04/16 10:34:01;;;;;;;17.48;15.38;;;23.00;58.60;;;;;;4935640;29;20031;-78
2022/04/16 10:36:37;;;;;;;16.88;15.07;;;23.00;58.70;;;;;;4933943;28;20050;-85
2022/04/16 10:39:17;;;;;;;17.45;14.95;;;22.90;58.50;;;;;;4928150;29;20058;-88
2022/04/16 10:41:53;;;;;;;18.33;14.82;;;23.00;58.70;;;;;;4938463;29;20251;-88
2022/04/16 10:44:20;;;;;;;26.65;22.67;;;23.00;58.60;;;;;;4936938;29;20595;-90
2022/04/16 10:46:48;;;;;;;28.75;25.73;;;23.00;58.40;;;;;;4941962;29;20134;-91
2022/04/16 10:49:18;;;;;;;27.58;24.17;;;23.00;58.10;;;;;;4932163;29;20250;-85
2022/04/16 10:51:44;;;;;;;29.77;24.70;;;22.90;57.90;;;;;;4930725;29;20028;-89
2022/04/16 10:54:15;;;;;;;30.70;27.38;;;22.80;58.10;;;;;;4925946;29;20031;-90
2022/04/16 10:56:51;;;;;;;30.85;27.40;;;22.70;57.30;;;;;;4933438;28;20087;-86
2022/04/16 10:59:17;;;;;;;31.23;27.85;;;22.70;57.30;;;;;;4938224;29;20811;-85
2022/04/16 11:01:53;;;;;;;30.77;27.48;;;22.70;57.40;;;;;;4939888;29;20051;-81
2022/04/16 11:04:19;;;;;;;30.33;26.92;;;22.60;57.00;;;;;;4936029;29;20082;-88
2022/04/16 11:06:48;;;;;;;32.97;29.42;;;22.60;57.20;;;;;;4926565;29;20035;-82
2022/04/16 11:09:17;;;;;;;32.85;28.33;;;22.60;57.10;;;;;;4934422;29;20479;-86
2022/04/16 11:11:43;;;;;;;32.38;28.88;;;22.60;57.00;;;;;;4932781;29;20031;-87
2022/04/16 11:14:10;;;;;;;33.63;30.10;;;22.70;57.10;;;;;;4933950;29;20032;-81
2022/04/16 11:16:46;;;;;;;33.38;29.77;;;22.70;57.00;;;;;;4934622;28;20027;-86
2022/04/16 11:19:13;;;;;;;34.72;31.02;;;22.70;56.80;;;;;;4936312;29;20040;-87
2022/04/16 11:21:39;;;;;;;37.72;30.45;;;22.70;56.90;;;;;;4929473;29;20043;-87
2022/04/16 11:24:06;;;;;;;32.55;29.13;;;22.80;57.00;;;;;;4930520;29;20028;-87
2022/04/16 11:34:53;;;;;;;22.25;19.95;;;22.90;56.60;;;;;;4930016;29;20040;-83
2022/04/16 11:37:20;;;;;;;22.25;19.88;;;22.80;56.10;;;;;;4929820;29;20435;-83
2022/04/16 11:39:46;;;;;;;27.42;20.92;;;22.70;55.80;;;;;;4929036;29;20036;-81
2022/04/16 11:42:12;;;;;;;20.67;18.42;;;22.70;55.70;;;;;;4931702;29;20463;-81
2022/04/16 11:44:46;;;;;;;20.33;18.15;;;22.70;55.50;;;;;;4930037;29;20108;-86
2022/04/16 11:47:22;;;;;;;19.33;17.40;;;22.80;55.30;;;;;;4927213;29;20063;-90
2022/04/16 11:49:55;;;;;;;20.30;18.30;;;22.80;55.00;;;;;;4928573;29;20063;-85
2022/04/16 11:52:26;;;;;;;19.45;17.40;;;22.90;54.90;;;;;;4925473;29;20182;-94
2022/04/16 11:54:59;;;;;;;21.02;18.92;;;23.00;54.80;;;;;;4929110;29;20031;-92
2022/04/16 11:57:25;;;;;;;18.63;16.85;;;23.10;54.70;;;;;;4925638;29;20074;-93
2022/04/16 11:59:59;;;;;;;21.55;16.27;;;23.20;54.70;;;;;;4926697;29;20063;-93
2022/04/16 12:02:39;;;;;;;16.60;14.85;;;23.30;54.50;;;;;;4924581;29;20107;-92
2022/04/16 12:05:09;;;;;;;17.80;15.88;;;23.40;54.20;;;;;;4912587;29;20024;-92
2022/04/16 12:07:35;;;;;;;15.93;14.23;;;23.50;54.00;;;;;;4928996;29;20051;-91
2022/04/16 12:10:03;;;;;;;18.20;13.75;;;23.60;53.90;;;;;;4921917;29;20158;-84
2022/04/16 12:12:29;;;;;;;16.85;14.23;;;23.70;53.60;;;;;;4927371;29;20031;-85
2022/04/16 12:14:55;;;;;;;14.55;13.02;;;23.80;53.50;;;;;;4921349;29;20052;-84
2022/04/16 12:17:26;;;;;;;13.65;12.23;;;23.90;53.30;;;;;;4928698;29;20487;-93
2022/04/16 12:20:12;;;;;;;15.93;13.70;;;24.10;53.10;;;;;;4908567;29;20096;-92
2022/04/16 12:23:02;;;;;;;16.75;12.73;;;24.20;52.60;;;;;;4927333;29;20058;-93
2022/04/16 12:25:29;;;;;;;15.35;13.90;;;24.30;52.60;;;;;;4925452;29;20363;-91
2022/04/16 12:27:58;;;;;;;14.55;13.15;;;24.40;52.80;;;;;;4929049;29;20432;-89
2022/04/16 12:30:37;;;;;;;15.10;13.05;;;24.50;52.70;;;;;;4925611;28;20045;-90
2022/04/16 12:33:11;;;;;;;14.80;13.15;;;24.50;52.50;;;;;;4927279;29;20300;-89
2022/04/16 12:35:48;;;;;;;13.35;11.95;;;24.60;52.40;;;;;;4926671;29;20368;-88
2022/04/16 12:38:17;;;;;;;18.52;12.93;;;24.70;52.60;;;;;;4926841;29;20031;-88
2022/04/16 12:40:44;;;;;;;12.75;11.48;;;24.80;52.70;;;;;;4922511;29;20376;-79
2022/04/16 12:43:11;;;;;;;13.30;12.02;;;24.90;52.60;;;;;;4929270;29;20191;-77
2022/04/16 12:45:36;;;;;;;15.63;13.98;;;25.00;52.40;;;;;;4934482;28;20038;-78
2022/04/16 12:48:03;;;;;;;15.18;13.60;;;25.00;52.20;;;;;;4935746;29;20043;-78
2022/04/16 12:50:32;;;;;;;15.45;13.77;;;25.10;52.10;;;;;;4934863;29;20516;-76
2022/04/16 12:53:04;;;;;;;17.38;14.05;;;25.20;51.90;;;;;;4931952;29;20027;-79
2022/04/16 12:55:30;;;;;;;15.52;13.77;;;25.30;51.80;;;;;;4930747;29;20032;-76
2022/04/16 12:57:57;;;;;;;15.73;14.10;;;25.40;51.70;;;;;;4930833;29;20042;-77
2022/04/16 13:00:23;;;;;;;17.33;13.93;;;25.50;51.50;;;;;;4939949;29;20043;-78
2022/04/16 13:02:49;;;;;;;17.98;14.88;;;25.60;51.40;;;;;;4939984;29;20035;-77